Valley View, Pennsylvania
Current Conditions -  °F | °C
As of 10:58 AM on Thursday 18 Dec 2014 (Local Time) from KMUI Reporting Station
Overcast Overcast  
Wind Chill: 27°   Ceiling: 3000
Heat Index: 34°   Visibility: 10mi
Dew Point: 24°   Wind: 8mph
Humidity: 69%   Direction: 240°WSW
Pressure: 30.09"   Gusts: NA
Location:  40.65°N, 76.54°W
Report Text: KMUI 181558Z AUTO 24007KT 10SM OVC030 01/M04 A3009 RMK AO2 SLP197 T00091043
Loading
Personal Weather Stations






























Interactive Weather Map New forecast layout! Learn more

10-Day Weather Forecast

Advertisements
Track Severe Weather on mobile